CSHVD LPCS-LPCS

Flight info

Callsign CSHVD
Flight time 0h 3m
Altitude 1500
Route CCAIS / CIRCUITS AT LPCS
Aircraft H269/L-VGD/C

Departure

Time 2026-04-28 14:59
Airport Cascais Airport (LPCS)

Arrival

Time 2026-04-28 15:02
Airport Cascais Airport (LPCS)
Time Latitude Longitude Altitude Speed Heading
2026-04-28 14:50 38.72296 -9.35778 312 ft 0 kts 96°
2026-04-28 14:54 38.72295 -9.35768 317 ft 4 kts 105°
2026-04-28 14:54 38.72293 -9.35743 323 ft 3 kts 88°
2026-04-28 14:54 38.72301 -9.35693 322 ft 7 kts 84°
2026-04-28 14:54 38.72313 -9.35649 327 ft 6 kts 84°
2026-04-28 14:55 38.72325 -9.35602 322 ft 3 kts 83°
2026-04-28 14:55 38.72337 -9.35556 322 ft 3 kts 81°
2026-04-28 14:55 38.72347 -9.35522 323 ft 1 kts 85°
2026-04-28 14:55 38.72345 -9.35518 326 ft 6 kts 87°
2026-04-28 14:56 38.72348 -9.35469 327 ft 4 kts 160°
2026-04-28 14:56 38.72287 -9.35449 370 ft 20 kts 174°
2026-04-28 14:56 38.72058 -9.35380 467 ft 48 kts 173°
2026-04-28 14:56 38.71681 -9.35220 583 ft 63 kts 168°
2026-04-28 14:57 38.71271 -9.35085 756 ft 62 kts 173°
2026-04-28 14:57 38.70966 -9.35031 760 ft 71 kts 177°
2026-04-28 14:57 38.70311 -9.34858 744 ft 79 kts 148°
2026-04-28 14:57 38.70217 -9.34189 662 ft 85 kts 60°
2026-04-28 14:58 38.70576 -9.33689 789 ft 73 kts 45°
2026-04-28 14:58 38.70958 -9.33237 822 ft 76 kts 22°
2026-04-28 14:58 38.71514 -9.33159 745 ft 80 kts 341°
2026-04-28 14:58 38.72003 -9.33388 859 ft 66 kts 334°
2026-04-28 14:59 38.72475 -9.33552 948 ft 75 kts 342°
2026-04-28 14:59 38.72978 -9.33768 967 ft 75 kts 336°
2026-04-28 14:59 38.73490 -9.33993 968 ft 78 kts 335°
2026-04-28 14:59 38.74010 -9.34211 987 ft 76 kts 336°
2026-04-28 15:00 38.74513 -9.34392 1011 ft 73 kts 340°
2026-04-28 15:00 38.75044 -9.34556 952 ft 79 kts 336°
2026-04-28 15:00 38.75548 -9.34731 985 ft 71 kts 335°
2026-04-28 15:00 38.75814 -9.35222 925 ft 74 kts 269°
2026-04-28 15:01 38.75711 -9.35823 880 ft 66 kts 236°
2026-04-28 15:01 38.75423 -9.36219 900 ft 62 kts 209°
2026-04-28 15:01 38.75076 -9.36493 974 ft 59 kts 198°
2026-04-28 15:01 38.74627 -9.36401 970 ft 64 kts 156°
2026-04-28 15:02 38.74207 -9.36157 886 ft 66 kts 154°
2026-04-28 15:02 38.73795 -9.35996 792 ft 59 kts 177°
2026-04-28 15:02 38.73380 -9.35866 601 ft 57 kts 165°
2026-04-28 15:02 38.73034 -9.35714 441 ft 48 kts 169°
2026-04-28 15:03 38.72783 -9.35622 376 ft 26 kts 179°
2026-04-28 15:03 38.72669 -9.35582 351 ft 10 kts 172°
2026-04-28 15:03 38.72596 -9.35562 367 ft 17 kts 166°
2026-04-28 15:03 38.72448 -9.35499 414 ft 21 kts 172°
2026-04-28 15:04 38.72253 -9.35445 445 ft 35 kts 161°
2026-04-28 15:04 38.72002 -9.35368 516 ft 38 kts 161°
2026-04-28 15:04 38.71751 -9.35279 613 ft 36 kts 180°
2026-04-28 15:04 38.71495 -9.35231 738 ft 38 kts 186°
2026-04-28 15:05 38.71193 -9.35199 824 ft 47 kts 179°
2026-04-28 15:05 38.70844 -9.35165 885 ft 57 kts 179°
2026-04-28 15:05 38.70402 -9.35148 838 ft 66 kts 177°
2026-04-28 15:05 38.69907 -9.35104 738 ft 74 kts 171°
2026-04-28 15:06 38.69412 -9.35013 703 ft 67 kts 183°
2026-04-28 15:06 38.68937 -9.34973 686 ft 66 kts 172°
2026-04-28 15:06 38.68615 -9.35203 689 ft 69 kts 245°
2026-04-28 15:06 38.68706 -9.35695 763 ft 61 kts 315°
2026-04-28 15:07 38.69003 -9.36037 868 ft 57 kts 304°
2026-04-28 15:07 38.69271 -9.36485 832 ft 68 kts 291°
2026-04-28 15:07 38.69485 -9.37068 726 ft 75 kts 290°
2026-04-28 15:07 38.69680 -9.37603 796 ft 59 kts 291°
2026-04-28 15:08 38.69828 -9.38086 836 ft 59 kts 289°
2026-04-28 15:08 38.69967 -9.38619 752 ft 67 kts 283°
2026-04-28 15:08 38.70106 -9.39129 759 ft 58 kts 292°
2026-04-28 15:08 38.70283 -9.39648 665 ft 64 kts 290°
2026-04-28 15:09 38.70318 -9.40183 635 ft 63 kts 272°
2026-04-28 15:09 38.70266 -9.40752 541 ft 64 kts 255°
2026-04-28 15:09 38.70099 -9.41252 525 ft 58 kts 243°
2026-04-28 15:09 38.69963 -9.41558 504 ft 60 kts 243°
2026-04-28 15:10 38.69531 -9.42050 381 ft 69 kts 179°
2026-04-28 15:10 38.69185 -9.41746 326 ft 63 kts 123°
2026-04-28 15:10 38.69192 -9.41196 270 ft 65 kts 55°
2026-04-28 15:10 38.69458 -9.40908 386 ft 45 kts 326°
2026-04-28 15:11 38.69469 -9.41189 414 ft 38 kts 230°
2026-04-28 15:11 38.69288 -9.41433 332 ft 46 kts 224°
2026-04-28 15:11 38.69065 -9.41704 255 ft 40 kts 242°
2026-04-28 15:11 38.69009 -9.41964 212 ft 26 kts 307°
2026-04-28 15:12 38.69158 -9.41945 190 ft 30 kts 62°
2026-04-28 15:12 38.69122 -9.41690 170 ft 24 kts 64°
2026-04-28 15:12 38.69165 -9.41546 92 ft 20 kts 56°
2026-04-28 15:12 38.69250 -9.41430 52 ft 14 kts 59°
2026-04-28 15:13 38.69320 -9.41373 39 ft 7 kts 49°
2026-04-28 15:13 38.69359 -9.41336 31 ft 7 kts 44°
2026-04-28 15:13 38.69379 -9.41321 31 ft 2 kts 18°
2026-04-28 15:13 38.69395 -9.41317 64 ft 7 kts 39°
2026-04-28 15:14 38.69416 -9.41238 119 ft 9 kts 63°
2026-04-28 15:14 38.69481 -9.41136 218 ft 22 kts 49°
2026-04-28 15:14 38.69620 -9.40901 421 ft 51 kts 39°
2026-04-28 15:14 38.69913 -9.40515 591 ft 67 kts 31°
2026-04-28 15:15 38.70200 -9.40005 733 ft 72 kts 49°
2026-04-28 15:15 38.70351 -9.39378 802 ft 77 kts 72°
2026-04-28 15:15 38.70126 -9.38764 787 ft 77 kts 129°
2026-04-28 15:15 38.69766 -9.38335 949 ft 67 kts 134°
2026-04-28 15:16 38.69437 -9.37861 992 ft 77 kts 127°
2026-04-28 15:16 38.69107 -9.37271 918 ft 87 kts 126°
2026-04-28 15:16 38.68772 -9.36718 988 ft 72 kts 130°
2026-04-28 15:16 38.68470 -9.36204 1027 ft 75 kts 131°
2026-04-28 15:17 38.68172 -9.35714 1130 ft 71 kts 122°
2026-04-28 15:17 38.67916 -9.35129 1142 ft 78 kts 113°
2026-04-28 15:17 38.67808 -9.34409 1035 ft 89 kts 84°
2026-04-28 15:17 38.67760 -9.33600 842 ft 88 kts 103°
2026-04-28 15:18 38.67423 -9.33017 825 ft 76 kts 134°
2026-04-28 15:18 38.67195 -9.32447 913 ft 77 kts 94°
2026-04-28 15:18 38.67442 -9.31846 855 ft 83 kts 28°
2026-04-28 15:18 38.68019 -9.31715 636 ft 87 kts 341°
2026-04-28 15:19 38.68519 -9.31982 611 ft 72 kts 323°
2026-04-28 15:19 38.69001 -9.32119 632 ft 68 kts 347°
2026-04-28 15:19 38.69438 -9.32110 731 ft 59 kts 359°
2026-04-28 15:19 38.69846 -9.32101 818 ft 56 kts 352°
2026-04-28 15:20 38.70246 -9.32291 779 ft 70 kts 325°
2026-04-28 15:20 38.70714 -9.32530 729 ft 69 kts 328°
2026-04-28 15:20 38.71122 -9.32757 795 ft 59 kts 330°
2026-04-28 15:20 38.71475 -9.32935 911 ft 55 kts 329°
2026-04-28 15:21 38.71846 -9.33220 911 ft 64 kts 314°
2026-04-28 15:21 38.72198 -9.33593 917 ft 65 kts 311°
2026-04-28 15:21 38.72561 -9.33923 932 ft 66 kts 331°
2026-04-28 15:21 38.73023 -9.33977 973 ft 64 kts 353°
2026-04-28 15:22 38.73461 -9.33924 1003 ft 65 kts 359°
2026-04-28 15:22 38.73910 -9.33928 1009 ft 65 kts 348°
2026-04-28 15:22 38.74397 -9.33988 886 ft 75 kts 340°
2026-04-28 15:22 38.74877 -9.34102 846 ft 65 kts 338°
2026-04-28 15:23 38.75307 -9.34258 804 ft 65 kts 317°
2026-04-28 15:23 38.75545 -9.34703 794 ft 55 kts 284°
2026-04-28 15:23 38.75639 -9.35121 861 ft 47 kts 272°
2026-04-28 15:23 38.75572 -9.35561 836 ft 54 kts 238°
2026-04-28 15:24 38.75394 -9.35948 866 ft 52 kts 225°
2026-04-28 15:24 38.75180 -9.36265 937 ft 43 kts 225°
2026-04-28 15:24 38.74898 -9.36449 954 ft 52 kts 174°
2026-04-28 15:24 38.74512 -9.36320 864 ft 69 kts 153°
2026-04-28 15:25 38.74059 -9.36088 720 ft 67 kts 157°
2026-04-28 15:25 38.73693 -9.35967 654 ft 45 kts 174°
2026-04-28 15:25 38.73399 -9.35875 547 ft 41 kts 163°
2026-04-28 15:25 38.73183 -9.35784 425 ft 19 kts 182°
2026-04-28 15:26 38.73042 -9.35714 395 ft 21 kts 176°
2026-04-28 15:26 38.72894 -9.35660 369 ft 21 kts 175°
2026-04-28 15:26 38.72773 -9.35621 353 ft 15 kts 181°
2026-04-28 15:26 38.72695 -9.35588 339 ft 11 kts 179°
2026-04-28 15:27 38.72620 -9.35567 351 ft 22 kts 165°
2026-04-28 15:27 38.72540 -9.35564 339 ft 13 kts 258°
2026-04-28 15:27 38.72545 -9.35651 333 ft 8 kts 14°
2026-04-28 15:27 38.72591 -9.35660 328 ft 6 kts
2026-04-28 15:28 38.72606 -9.35666 322 ft 0 kts 350°